createdAt,value
2023-05-18T00:02:21.446Z,13.56
2023-05-18T00:04:48.121Z,13.51
2023-05-18T00:07:14.559Z,13.46
2023-05-18T00:09:41.206Z,13.40
2023-05-18T00:12:07.499Z,13.34
2023-05-18T00:14:33.947Z,13.29
2023-05-18T00:17:00.226Z,13.25
2023-05-18T00:19:26.585Z,13.21
2023-05-18T00:21:52.911Z,13.16
2023-05-18T00:24:19.209Z,13.10
2023-05-18T00:26:45.486Z,13.06
2023-05-18T00:29:12.904Z,12.99
2023-05-18T00:31:39.319Z,12.94
2023-05-18T00:34:08.400Z,12.91
2023-05-18T00:36:34.980Z,12.87
2023-05-18T00:39:05.353Z,12.82
2023-05-18T00:41:31.760Z,12.76
2023-05-18T00:43:58.245Z,12.70
2023-05-18T00:46:24.659Z,12.63
2023-05-18T00:48:50.955Z,12.57
2023-05-18T00:51:17.238Z,12.51
2023-05-18T00:53:44.216Z,12.46
2023-05-18T00:56:10.673Z,12.40
2023-05-18T00:58:36.935Z,12.35
2023-05-18T01:01:03.738Z,12.29
2023-05-18T01:03:30.030Z,12.24
2023-05-18T01:05:56.405Z,12.18
2023-05-18T01:08:22.670Z,12.14
2023-05-18T01:10:49.053Z,12.08
2023-05-18T01:13:15.366Z,12.02
2023-05-18T01:15:41.600Z,11.99
2023-05-18T01:18:07.994Z,11.92
2023-05-18T01:20:34.248Z,11.89
2023-05-18T01:23:00.476Z,11.85
2023-05-18T01:25:26.819Z,11.81
2023-05-18T01:27:53.181Z,11.76
2023-05-18T01:30:19.416Z,11.70
2023-05-18T01:32:45.711Z,11.66
2023-05-18T01:35:12.001Z,11.63
2023-05-18T01:37:38.243Z,11.58
2023-05-18T01:40:04.493Z,11.54
2023-05-18T01:42:30.718Z,11.51
2023-05-18T01:44:57.294Z,11.46
2023-05-18T01:47:23.840Z,11.43
2023-05-18T01:49:50.090Z,11.39
2023-05-18T01:52:16.355Z,11.37
2023-05-18T01:54:42.585Z,11.34
2023-05-18T01:57:09.548Z,11.31
2023-05-18T01:59:35.882Z,11.27
2023-05-18T02:02:02.141Z,11.24
2023-05-18T02:04:28.396Z,11.20
2023-05-18T02:06:54.654Z,11.16
2023-05-18T02:09:21.017Z,11.13
2023-05-18T02:11:47.246Z,11.10
2023-05-18T02:14:13.540Z,11.06
2023-05-18T02:16:40.050Z,11.04
2023-05-18T02:19:06.393Z,11.01
2023-05-18T02:21:32.691Z,10.98
2023-05-18T02:23:58.954Z,10.93
2023-05-18T02:26:25.555Z,10.89
2023-05-18T02:28:51.832Z,10.86
2023-05-18T02:31:18.161Z,10.83
2023-05-18T02:33:44.625Z,10.80
2023-05-18T02:36:10.910Z,10.77
2023-05-18T02:38:37.174Z,10.74
2023-05-18T02:41:03.510Z,10.71
2023-05-18T02:43:29.850Z,10.68
2023-05-18T02:45:56.867Z,10.66
2023-05-18T02:48:23.185Z,10.61
2023-05-18T02:50:49.544Z,10.59
2023-05-18T02:53:15.861Z,10.55
2023-05-18T02:55:42.150Z,10.52
2023-05-18T02:58:08.443Z,10.49
2023-05-18T03:00:34.812Z,10.44
2023-05-18T03:03:01.546Z,10.39
2023-05-18T03:05:28.080Z,10.35
2023-05-18T03:07:54.523Z,10.32
2023-05-18T03:10:21.155Z,10.29
2023-05-18T03:12:47.451Z,10.26
2023-05-18T03:15:13.759Z,10.23
2023-05-18T03:17:40.220Z,10.20
2023-05-18T03:20:06.601Z,10.16
2023-05-18T03:22:32.894Z,10.15
2023-05-18T03:24:59.205Z,10.14
2023-05-18T03:27:25.569Z,10.12
2023-05-18T03:29:51.956Z,10.10
2023-05-18T03:32:18.457Z,10.08
2023-05-18T03:34:45.090Z,10.06
2023-05-18T03:37:11.501Z,10.03
2023-05-18T03:39:37.775Z,10.02
2023-05-18T03:42:04.038Z,9.99
2023-05-18T03:44:30.467Z,9.97
2023-05-18T03:46:56.727Z,9.95
2023-05-18T03:49:22.976Z,9.85
2023-05-18T03:51:49.362Z,9.93
2023-05-18T03:54:15.682Z,9.92
2023-05-18T03:56:41.954Z,9.90
2023-05-18T03:59:08.542Z,9.89
2023-05-18T04:01:34.905Z,9.86
2023-05-18T04:04:01.825Z,9.86
2023-05-18T04:06:28.117Z,9.84
2023-05-18T04:08:54.548Z,9.83
2023-05-18T04:11:20.834Z,9.83
2023-05-18T04:13:47.376Z,9.82
2023-05-18T04:16:13.792Z,9.84
2023-05-18T04:18:40.255Z,9.92
2023-05-18T04:21:06.602Z,10.03
2023-05-18T04:23:33.088Z,10.03
2023-05-18T04:25:59.363Z,9.98
2023-05-18T04:28:25.985Z,9.96
2023-05-18T04:30:52.407Z,9.96
2023-05-18T04:33:18.770Z,9.96
2023-05-18T04:35:45.144Z,9.97
2023-05-18T04:38:11.542Z,10.00
2023-05-18T04:40:37.894Z,9.98
2023-05-18T04:43:04.278Z,10.14
2023-05-18T04:45:30.744Z,10.26
2023-05-18T04:47:57.236Z,10.36
2023-05-18T04:50:23.688Z,10.43
2023-05-18T04:52:50.234Z,10.48
2023-05-18T04:55:16.550Z,10.50
2023-05-18T04:57:42.818Z,10.45
2023-05-18T05:00:09.079Z,10.46
2023-05-18T05:02:35.420Z,10.49
2023-05-18T05:05:01.746Z,10.53
2023-05-18T05:07:28.033Z,10.58
2023-05-18T05:09:54.569Z,10.63
2023-05-18T05:12:21.020Z,10.70
2023-05-18T05:14:47.292Z,10.85
2023-05-18T05:17:13.660Z,10.86
2023-05-18T05:19:40.116Z,10.97
2023-05-18T05:22:06.402Z,11.02
2023-05-18T05:24:32.692Z,11.11
2023-05-18T05:26:59.138Z,11.23
2023-05-18T05:29:25.484Z,11.37
2023-05-18T05:31:51.848Z,11.56
2023-05-18T05:34:18.113Z,11.77
2023-05-18T05:36:44.443Z,11.91
2023-05-18T05:39:10.691Z,12.05
2023-05-18T05:41:37.087Z,12.18
2023-05-18T05:44:03.418Z,12.30
2023-05-18T05:46:29.798Z,12.44
2023-05-18T05:48:56.621Z,12.60
2023-05-18T05:51:23.035Z,12.73
2023-05-18T05:53:49.376Z,12.89
2023-05-18T05:56:15.738Z,13.03
2023-05-18T05:58:42.066Z,13.16
2023-05-18T06:01:08.353Z,13.28
2023-05-18T06:03:36.154Z,13.41
2023-05-18T06:06:02.595Z,13.55
2023-05-18T06:08:28.851Z,13.68
2023-05-18T06:10:55.104Z,13.81
2023-05-18T06:13:21.354Z,13.95
2023-05-18T06:15:47.755Z,14.11
2023-05-18T06:18:14.191Z,14.37
2023-05-18T06:20:40.640Z,14.67
2023-05-18T06:23:06.976Z,14.97
2023-05-18T06:25:33.397Z,15.25
2023-05-18T06:27:59.828Z,15.46
2023-05-18T06:30:26.145Z,15.66
2023-05-18T06:32:52.736Z,15.88
2023-05-18T06:35:19.217Z,16.09
2023-05-18T06:37:47.058Z,16.29
2023-05-18T06:40:13.588Z,16.47
2023-05-18T06:42:39.885Z,16.64
2023-05-18T06:45:06.448Z,16.82
2023-05-18T06:47:32.803Z,17.01
2023-05-18T06:49:59.070Z,17.16
2023-05-18T06:52:27.038Z,17.37
2023-05-18T06:54:53.655Z,17.56
2023-05-18T06:57:20.038Z,17.77
2023-05-18T06:59:46.844Z,17.94
2023-05-18T07:02:13.124Z,18.09
2023-05-18T07:04:39.442Z,18.26
2023-05-18T07:07:05.744Z,18.43
2023-05-18T07:09:32.041Z,18.59
2023-05-18T07:11:58.408Z,18.69
2023-05-18T07:14:24.780Z,18.78
2023-05-18T07:16:51.077Z,18.87
2023-05-18T07:19:17.420Z,19.01
2023-05-18T07:21:43.869Z,19.20
2023-05-18T07:24:10.306Z,19.39
2023-05-18T07:26:36.554Z,19.57
2023-05-18T07:29:02.826Z,19.73
2023-05-18T07:31:29.136Z,19.90
2023-05-18T07:33:55.448Z,20.08
2023-05-18T07:36:21.688Z,20.30
2023-05-18T07:38:47.901Z,20.53
2023-05-18T07:41:14.273Z,20.76
2023-05-18T07:43:40.728Z,21.03
2023-05-18T07:46:07.172Z,21.29
2023-05-18T07:48:33.486Z,21.48
2023-05-18T07:50:59.752Z,21.63
2023-05-18T07:53:26.096Z,21.77
2023-05-18T07:55:52.408Z,21.93
2023-05-18T07:58:18.796Z,22.16
2023-05-18T08:00:45.077Z,22.41
2023-05-18T08:03:11.629Z,22.61
2023-05-18T08:05:38.129Z,22.71
2023-05-18T08:08:06.587Z,22.76
2023-05-18T08:10:33.351Z,22.90
2023-05-18T08:12:59.710Z,23.10
2023-05-18T08:15:26.027Z,23.29
2023-05-18T08:17:52.410Z,23.52
2023-05-18T08:20:18.731Z,23.70
2023-05-18T08:22:44.998Z,23.95
2023-05-18T08:25:11.359Z,24.19
2023-05-18T08:27:37.766Z,24.33
2023-05-18T08:30:04.426Z,24.43
2023-05-18T08:32:31.089Z,24.40
2023-05-18T08:34:57.450Z,24.49
2023-05-18T08:37:23.793Z,24.78
2023-05-18T08:39:50.052Z,24.96
2023-05-18T08:42:16.364Z,25.10
2023-05-18T08:44:42.832Z,25.02
2023-05-18T08:47:09.150Z,24.98
2023-05-18T08:49:35.656Z,24.80
2023-05-18T08:52:01.923Z,24.49
2023-05-18T08:54:28.263Z,24.18
2023-05-18T08:56:54.532Z,23.21
2023-05-18T08:59:20.815Z,22.52
2023-05-18T09:01:47.225Z,22.14
2023-05-18T09:04:13.696Z,21.97
2023-05-18T09:06:40.090Z,21.85
2023-05-18T09:09:06.560Z,21.66
2023-05-18T09:11:32.952Z,21.50
2023-05-18T09:13:59.354Z,21.39
2023-05-18T09:16:25.744Z,21.33
2023-05-18T09:18:52.076Z,21.32
2023-05-18T09:21:18.436Z,21.34
2023-05-18T09:23:44.749Z,21.30
2023-05-18T09:26:11.477Z,21.31
2023-05-18T09:28:37.802Z,21.28
2023-05-18T09:31:04.127Z,21.22
2023-05-18T09:33:30.606Z,21.20
2023-05-18T09:35:56.991Z,21.20
2023-05-18T09:38:23.377Z,21.24
2023-05-18T09:40:49.684Z,21.26
2023-05-18T09:43:15.970Z,21.24
2023-05-18T09:45:42.374Z,21.24
2023-05-18T09:48:08.721Z,21.24
2023-05-18T09:50:35.175Z,21.26
2023-05-18T09:53:01.770Z,21.18
2023-05-18T09:55:28.056Z,21.18
2023-05-18T09:57:54.404Z,21.21
2023-05-18T10:00:22.271Z,21.21
2023-05-18T10:02:50.105Z,21.20
2023-05-18T10:05:16.646Z,21.14
2023-05-18T10:07:42.960Z,21.17
2023-05-18T10:10:09.551Z,21.17
2023-05-18T10:12:35.899Z,21.17
2023-05-18T10:15:02.189Z,21.20
2023-05-18T10:17:28.577Z,21.21
2023-05-18T10:19:54.898Z,21.18
2023-05-18T10:22:21.192Z,21.20
2023-05-18T10:24:47.522Z,21.18
2023-05-18T10:27:13.885Z,21.18
2023-05-18T10:29:40.230Z,21.11
2023-05-18T10:32:07.918Z,21.08
2023-05-18T10:34:34.498Z,21.02
2023-05-18T10:37:00.845Z,20.95
2023-05-18T10:39:29.174Z,20.99
2023-05-18T10:41:55.549Z,21.02
2023-05-18T10:44:21.912Z,21.00
2023-05-18T10:46:48.265Z,20.99
2023-05-18T10:49:16.160Z,21.00
2023-05-18T10:51:43.281Z,21.05
2023-05-18T10:54:09.745Z,21.03
2023-05-18T10:56:36.170Z,21.07
2023-05-18T10:59:02.702Z,21.04
2023-05-18T11:01:29.113Z,21.07
2023-05-18T11:03:55.494Z,21.14
2023-05-18T11:06:21.754Z,21.25
2023-05-18T11:08:48.127Z,21.35
2023-05-18T11:11:16.491Z,21.47
2023-05-18T11:13:44.494Z,21.53
2023-05-18T11:16:10.959Z,21.60
2023-05-18T11:18:38.451Z,21.65
2023-05-18T11:21:04.744Z,21.67
2023-05-18T11:23:31.124Z,21.70
2023-05-18T11:25:57.383Z,21.74
2023-05-18T11:28:23.633Z,21.80
2023-05-18T11:30:49.943Z,21.88
2023-05-18T11:33:16.448Z,21.92
2023-05-18T11:35:45.379Z,21.91
2023-05-18T11:38:11.870Z,21.89
2023-05-18T11:40:38.139Z,21.87
2023-05-18T11:43:04.417Z,21.90
2023-05-18T11:45:30.689Z,21.95
2023-05-18T11:47:57.015Z,22.00
2023-05-18T11:50:23.550Z,22.07
2023-05-18T11:52:49.814Z,22.10
2023-05-18T11:55:16.190Z,22.11
2023-05-18T11:57:42.473Z,22.13
2023-05-18T12:00:08.756Z,22.12
2023-05-18T12:02:35.144Z,22.13
2023-05-18T12:05:01.508Z,22.15
2023-05-18T12:07:27.807Z,22.15
2023-05-18T12:09:54.098Z,22.14
2023-05-18T12:12:20.543Z,22.13
2023-05-18T12:14:46.982Z,22.14
2023-05-18T12:17:13.290Z,22.15
2023-05-18T12:19:39.673Z,22.16
2023-05-18T12:22:05.966Z,22.17
2023-05-18T12:24:32.232Z,22.18
2023-05-18T12:26:58.491Z,22.19
2023-05-18T12:29:24.760Z,22.19
2023-05-18T12:31:51.045Z,22.21
2023-05-18T12:34:17.331Z,22.24
2023-05-18T12:36:43.652Z,22.23
2023-05-18T12:39:10.324Z,22.21
2023-05-18T12:41:37.938Z,22.21
2023-05-18T12:44:04.249Z,22.21
2023-05-18T12:46:30.619Z,22.21
2023-05-18T12:48:56.901Z,22.20
2023-05-18T12:51:23.258Z,22.23
2023-05-18T12:53:49.580Z,22.21
2023-05-18T12:56:15.954Z,22.23
2023-05-18T12:58:42.262Z,22.24
2023-05-18T13:01:08.631Z,22.24
2023-05-18T13:03:35.060Z,22.22
2023-05-18T13:06:01.526Z,22.23
2023-05-18T13:08:28.365Z,22.23
2023-05-18T13:11:05.094Z,22.22
2023-05-18T13:13:38.806Z,22.25
2023-05-18T13:16:05.128Z,22.28
2023-05-18T13:18:31.463Z,22.28
2023-05-18T13:20:57.836Z,22.27
2023-05-18T13:23:24.193Z,22.25
2023-05-18T13:25:50.724Z,22.22
2023-05-18T13:28:17.079Z,22.24
2023-05-18T13:30:43.500Z,22.25
2023-05-18T13:33:09.966Z,22.28
2023-05-18T13:35:36.351Z,22.31
2023-05-18T13:38:02.680Z,22.35
2023-05-18T13:40:29.050Z,22.35
2023-05-18T13:42:55.370Z,22.39
2023-05-18T13:45:21.656Z,22.44
2023-05-18T13:47:48.102Z,22.48
2023-05-18T13:50:14.547Z,22.47
2023-05-18T13:52:41.008Z,22.48
2023-05-18T13:55:07.362Z,22.46
2023-05-18T13:57:33.794Z,22.45
2023-05-18T14:00:00.213Z,22.46
2023-05-18T14:02:26.991Z,22.50
2023-05-18T14:04:53.324Z,22.53
2023-05-18T14:07:19.756Z,22.52
2023-05-18T14:09:46.146Z,22.51
2023-05-18T14:12:12.461Z,22.49
2023-05-18T14:14:38.901Z,22.46
2023-05-18T14:17:05.253Z,22.48
2023-05-18T14:19:31.641Z,22.50
2023-05-18T14:21:57.905Z,22.51
2023-05-18T14:24:24.186Z,22.54
2023-05-18T14:26:50.444Z,22.52
2023-05-18T14:29:16.897Z,22.53
2023-05-18T14:31:43.239Z,22.53
2023-05-18T14:34:09.634Z,22.51
2023-05-18T14:36:36.105Z,22.49
2023-05-18T14:39:02.922Z,22.49
2023-05-18T14:41:29.307Z,22.48
2023-05-18T14:43:55.697Z,22.47
2023-05-18T14:46:22.191Z,22.47
2023-05-18T14:48:48.740Z,22.46
2023-05-18T14:51:15.155Z,22.49
2023-05-18T14:53:41.525Z,22.50
2023-05-18T14:56:07.877Z,22.50
2023-05-18T14:58:34.347Z,22.50
2023-05-18T15:01:00.710Z,22.50
2023-05-18T15:03:28.350Z,22.49
2023-05-18T15:05:54.958Z,22.48
2023-05-18T15:08:21.322Z,22.47
2023-05-18T15:10:47.765Z,22.46
2023-05-18T15:13:14.197Z,22.44
2023-05-18T15:15:40.558Z,22.44
2023-05-18T15:18:06.980Z,22.44
2023-05-18T15:20:33.552Z,22.44
2023-05-18T15:23:00.074Z,22.44
2023-05-18T15:25:26.497Z,22.43
2023-05-18T15:27:52.843Z,22.42
2023-05-18T15:30:19.134Z,22.42
2023-05-18T15:32:45.490Z,22.40
2023-05-18T15:35:11.830Z,22.39
2023-05-18T15:37:38.170Z,22.35
2023-05-18T15:40:04.479Z,22.33
2023-05-18T15:42:30.839Z,22.34
2023-05-18T15:44:57.133Z,22.34
2023-05-18T15:47:23.447Z,22.32
2023-05-18T15:49:49.861Z,22.27
2023-05-18T15:52:16.256Z,22.18
2023-05-18T15:54:42.742Z,22.09
2023-05-18T15:57:09.219Z,22.00
2023-05-18T15:59:35.580Z,21.92
2023-05-18T16:02:01.839Z,21.85
2023-05-18T16:04:28.092Z,21.76
2023-05-18T16:06:54.334Z,21.71
2023-05-18T16:09:20.562Z,21.68
2023-05-18T16:11:46.824Z,21.64
2023-05-18T16:14:13.113Z,21.57
2023-05-18T16:16:39.452Z,21.52
2023-05-18T16:19:05.772Z,21.48
2023-05-18T16:21:32.135Z,21.44
2023-05-18T16:23:58.417Z,21.41
2023-05-18T16:26:24.663Z,21.37
2023-05-18T16:28:50.888Z,21.33
2023-05-18T16:31:17.217Z,21.30
2023-05-18T16:33:43.581Z,21.26
2023-05-18T16:36:09.938Z,21.21
2023-05-18T16:38:36.239Z,21.17
2023-05-18T16:41:03.267Z,21.15
2023-05-18T16:43:29.722Z,21.11
2023-05-18T16:45:56.115Z,21.08
2023-05-18T16:48:22.510Z,21.05
2023-05-18T16:50:49.013Z,21.01
2023-05-18T16:53:15.367Z,20.98
2023-05-18T16:55:41.688Z,20.95
2023-05-18T16:58:07.993Z,20.92
2023-05-18T17:00:34.460Z,20.90
2023-05-18T17:03:01.033Z,20.87
2023-05-18T17:05:27.458Z,20.83
2023-05-18T17:07:53.848Z,20.78
2023-05-18T17:10:20.149Z,20.75
2023-05-18T17:12:46.518Z,20.71
2023-05-18T17:15:12.811Z,20.68
2023-05-18T17:17:40.016Z,20.65
2023-05-18T17:20:08.196Z,20.61
2023-05-18T17:22:34.499Z,20.59
2023-05-18T17:25:00.818Z,20.55
2023-05-18T17:27:27.107Z,20.51
2023-05-18T17:29:53.375Z,20.46
2023-05-18T17:32:19.693Z,20.44
2023-05-18T17:34:46.373Z,20.40
2023-05-18T17:37:12.715Z,20.38
2023-05-18T17:39:39.005Z,20.34
2023-05-18T17:42:05.389Z,20.31
2023-05-18T17:44:31.685Z,20.26
2023-05-18T17:46:58.052Z,20.23
2023-05-18T17:49:24.411Z,20.19
2023-05-18T17:51:50.733Z,20.14
2023-05-18T17:54:17.026Z,20.10
2023-05-18T17:56:43.358Z,20.07
2023-05-18T17:59:09.655Z,20.03
2023-05-18T18:01:36.015Z,20.01
2023-05-18T18:04:02.448Z,19.97
2023-05-18T18:06:28.733Z,19.94
2023-05-18T18:08:55.102Z,19.90
2023-05-18T18:11:21.477Z,19.88
2023-05-18T18:13:47.786Z,19.85
2023-05-18T18:16:14.151Z,19.82
2023-05-18T18:18:40.613Z,19.80
2023-05-18T18:21:07.043Z,19.77
2023-05-18T18:23:33.448Z,19.72
2023-05-18T18:26:00.550Z,19.67
2023-05-18T18:28:27.403Z,19.64
2023-05-18T18:30:53.833Z,19.60
2023-05-18T18:33:20.130Z,19.58
2023-05-18T18:35:46.898Z,19.61
2023-05-18T18:38:17.976Z,19.67
2023-05-18T18:40:46.151Z,19.76
2023-05-18T18:43:13.379Z,19.85
2023-05-18T18:45:40.626Z,19.93
2023-05-18T18:48:08.112Z,19.97
2023-05-18T18:50:35.276Z,20.00
2023-05-18T18:53:01.833Z,20.02
2023-05-18T18:55:28.866Z,20.03
2023-05-18T18:58:01.339Z,20.05
2023-05-18T19:00:32.815Z,20.06
2023-05-18T19:03:02.061Z,20.06
2023-05-18T19:05:32.224Z,20.06
2023-05-18T19:08:01.869Z,20.06
2023-05-18T19:10:28.376Z,20.05
2023-05-18T19:12:54.624Z,20.04
2023-05-18T19:15:20.930Z,20.04
2023-05-18T19:17:47.250Z,20.04
2023-05-18T19:20:13.527Z,20.03
2023-05-18T19:22:39.853Z,20.02
2023-05-18T19:25:06.657Z,20.01
2023-05-18T19:27:32.970Z,20.00
2023-05-18T19:30:01.654Z,19.99
2023-05-18T19:32:28.892Z,19.99
2023-05-18T19:34:55.296Z,19.97
2023-05-18T19:37:21.602Z,19.96
2023-05-18T19:39:47.939Z,19.95
2023-05-18T19:42:14.297Z,19.95
2023-05-18T19:44:40.670Z,19.94
2023-05-18T19:47:07.035Z,19.93
2023-05-18T19:49:33.316Z,19.91
2023-05-18T19:51:59.677Z,19.90
2023-05-18T19:54:26.027Z,19.89
2023-05-18T19:56:52.485Z,19.87
2023-05-18T19:59:18.989Z,19.86
2023-05-18T20:01:45.286Z,19.84
2023-05-18T20:04:11.707Z,19.82
2023-05-18T20:06:38.077Z,19.80
2023-05-18T20:09:04.419Z,19.75
2023-05-18T20:11:30.778Z,19.79
2023-05-18T20:13:57.105Z,19.79
2023-05-18T20:16:23.637Z,19.77
2023-05-18T20:18:50.034Z,19.76
2023-05-18T20:21:16.375Z,19.74
2023-05-18T20:23:42.890Z,19.74
2023-05-18T20:26:09.209Z,19.71
2023-05-18T20:28:35.561Z,19.70
2023-05-18T20:31:02.193Z,19.69
2023-05-18T20:33:28.602Z,19.68
2023-05-18T20:35:54.938Z,19.67
2023-05-18T20:38:21.366Z,19.67
2023-05-18T20:40:47.661Z,19.65
2023-05-18T20:43:14.022Z,19.63
2023-05-18T20:45:40.325Z,19.61
2023-05-18T20:48:06.733Z,19.61
2023-05-18T20:50:33.385Z,19.60
2023-05-18T20:52:59.876Z,19.59
2023-05-18T20:55:26.163Z,19.57
2023-05-18T20:57:52.577Z,19.56
2023-05-18T21:00:18.916Z,19.54
2023-05-18T21:02:45.383Z,19.53
2023-05-18T21:05:11.765Z,19.51
2023-05-18T21:07:38.115Z,19.50
2023-05-18T21:10:04.376Z,19.49
2023-05-18T21:12:30.682Z,19.48
2023-05-18T21:14:57.004Z,19.47
2023-05-18T21:17:23.312Z,19.45
2023-05-18T21:19:49.610Z,19.44
2023-05-18T21:22:15.925Z,19.43
2023-05-18T21:24:42.380Z,19.42
2023-05-18T21:27:08.734Z,19.41
2023-05-18T21:29:35.028Z,19.40
2023-05-18T21:32:01.380Z,19.39
2023-05-18T21:34:27.805Z,19.37
2023-05-18T21:36:54.193Z,19.36
2023-05-18T21:39:20.508Z,19.33
2023-05-18T21:41:46.943Z,19.34
2023-05-18T21:44:13.272Z,19.33
2023-05-18T21:46:39.583Z,19.34
2023-05-18T21:49:05.881Z,19.31
2023-05-18T21:51:32.209Z,19.17
2023-05-18T21:53:58.543Z,18.98
2023-05-18T21:56:24.960Z,18.80
2023-05-18T21:58:51.310Z,18.65
2023-05-18T22:01:17.740Z,18.51
2023-05-18T22:03:44.102Z,18.39
2023-05-18T22:06:10.409Z,18.28
2023-05-18T22:08:36.727Z,18.17
2023-05-18T22:11:03.027Z,18.07
2023-05-18T22:13:29.294Z,17.98
2023-05-18T22:15:55.573Z,17.88
2023-05-18T22:18:25.087Z,17.81
2023-05-18T22:20:51.474Z,17.72
2023-05-18T22:23:17.779Z,17.65
2023-05-18T22:25:44.106Z,17.56
2023-05-18T22:28:10.379Z,17.50
2023-05-18T22:30:36.643Z,17.43
2023-05-18T22:33:03.080Z,17.35
2023-05-18T22:35:29.389Z,17.29
2023-05-18T22:37:55.752Z,17.23
2023-05-18T22:40:22.321Z,17.17
2023-05-18T22:42:48.561Z,17.12
2023-05-18T22:45:14.977Z,17.06
2023-05-18T22:47:41.470Z,17.02
2023-05-18T22:50:08.092Z,16.96
2023-05-18T22:52:35.092Z,16.89
2023-05-18T22:55:01.550Z,16.83
2023-05-18T22:57:30.986Z,16.77
2023-05-18T22:59:57.364Z,16.71
2023-05-18T23:02:23.656Z,16.66
2023-05-18T23:04:49.989Z,16.60
2023-05-18T23:07:16.387Z,16.55
2023-05-18T23:09:42.689Z,16.50
2023-05-18T23:12:09.199Z,16.45
2023-05-18T23:14:35.515Z,16.41
2023-05-18T23:17:02.356Z,16.36
2023-05-18T23:19:28.650Z,16.29
2023-05-18T23:21:54.982Z,16.25
2023-05-18T23:24:21.357Z,16.20
2023-05-18T23:26:47.837Z,16.15
2023-05-18T23:29:15.359Z,16.11
2023-05-18T23:31:41.779Z,16.06
2023-05-18T23:34:08.121Z,16.01
2023-05-18T23:36:34.416Z,15.97
2023-05-18T23:39:00.731Z,15.93
2023-05-18T23:41:27.358Z,15.89
2023-05-18T23:43:53.654Z,15.84
2023-05-18T23:46:20.088Z,15.80
2023-05-18T23:48:46.387Z,15.75
2023-05-18T23:51:12.685Z,15.71
2023-05-18T23:53:38.997Z,15.65
2023-05-18T23:56:05.263Z,15.61
2023-05-18T23:58:31.604Z,15.55
